createdAt,value
2018-12-13T00:02:12.684Z,5.43
2018-12-13T00:04:43.827Z,4.77
2018-12-13T00:07:17.368Z,5.87
2018-12-13T00:09:48.848Z,4.80
2018-12-13T00:12:19.923Z,6.03
2018-12-13T00:14:49.005Z,5.13
2018-12-13T00:17:20.054Z,5.73
2018-12-13T00:19:53.359Z,5.30
2018-12-13T00:22:24.937Z,7.20
2018-12-13T00:24:55.982Z,6.13
2018-12-13T00:27:27.031Z,5.80
2018-12-13T00:29:57.787Z,6.00
2018-12-13T00:32:29.059Z,5.37
2018-12-13T00:34:59.951Z,5.77
2018-12-13T00:37:31.090Z,5.93
2018-12-13T00:40:02.143Z,6.53
2018-12-13T00:42:32.933Z,6.80
2018-12-13T00:45:04.964Z,6.37
2018-12-13T00:47:35.979Z,6.00
2018-12-13T00:50:07.239Z,5.77
2018-12-13T00:52:38.806Z,6.23
2018-12-13T00:55:10.029Z,6.47
2018-12-13T00:57:40.983Z,6.47
2018-12-13T01:00:12.225Z,6.13
2018-12-13T01:02:44.011Z,6.70
2018-12-13T01:05:14.949Z,5.90
2018-12-13T01:07:45.808Z,6.63
2018-12-13T01:10:17.071Z,6.07
2018-12-13T01:12:48.004Z,5.87
2018-12-13T01:15:18.724Z,6.53
2018-12-13T01:17:49.683Z,6.27
2018-12-13T01:20:20.698Z,6.10
2018-12-13T01:22:52.039Z,7.30
2018-12-13T01:25:23.391Z,7.13
2018-12-13T01:27:54.237Z,7.23
2018-12-13T01:30:27.667Z,6.50
2018-12-13T01:32:58.933Z,6.63
2018-12-13T01:35:30.267Z,7.70
2018-12-13T01:38:01.049Z,7.43
2018-12-13T01:40:32.127Z,7.47
2018-12-13T01:43:05.719Z,7.90
2018-12-13T01:45:37.003Z,7.80
2018-12-13T01:48:08.211Z,6.47
2018-12-13T01:50:38.879Z,8.07
2018-12-13T01:53:09.663Z,8.10
2018-12-13T01:55:40.671Z,8.40
2018-12-13T01:58:11.470Z,6.73
2018-12-13T02:00:42.751Z,7.77
2018-12-13T02:03:13.904Z,7.37
2018-12-13T02:05:44.806Z,7.87
2018-12-13T02:08:18.199Z,7.50
2018-12-13T02:10:47.607Z,7.80
2018-12-13T02:13:21.859Z,7.97
2018-12-13T02:15:53.322Z,7.53
2018-12-13T02:18:24.919Z,7.30
2018-12-13T02:20:56.044Z,6.73
2018-12-13T02:23:29.542Z,7.13
2018-12-13T02:26:00.935Z,7.53
2018-12-13T02:28:31.841Z,7.33
2018-12-13T02:31:02.953Z,6.50
2018-12-13T02:33:34.083Z,6.20
2018-12-13T02:36:05.260Z,7.23
2018-12-13T02:38:36.072Z,5.80
2018-12-13T02:41:09.324Z,7.00
2018-12-13T02:43:40.313Z,6.40
2018-12-13T02:46:11.165Z,6.70
2018-12-13T02:48:42.383Z,5.40
2018-12-13T02:51:16.095Z,6.30
2018-12-13T02:53:47.647Z,6.27
2018-12-13T02:56:21.964Z,6.47
2018-12-13T02:58:51.663Z,6.30
2018-12-13T03:01:23.366Z,6.63
2018-12-13T03:03:55.407Z,6.87
2018-12-13T03:06:26.376Z,7.03
2018-12-13T03:08:58.092Z,7.13
2018-12-13T03:11:28.937Z,7.10
2018-12-13T03:13:59.890Z,6.97
2018-12-13T03:16:30.758Z,6.27
2018-12-13T03:19:04.445Z,7.37
2018-12-13T03:21:35.907Z,7.33
2018-12-13T03:24:07.219Z,7.43
2018-12-13T03:26:38.194Z,7.63
2018-12-13T03:29:11.786Z,7.30
2018-12-13T03:31:42.736Z,7.53
2018-12-13T03:34:16.145Z,6.47
2018-12-13T03:36:47.614Z,7.47
2018-12-13T03:39:18.691Z,6.90
2018-12-13T03:41:49.961Z,7.00
2018-12-13T03:44:23.651Z,7.53
2018-12-13T03:46:55.364Z,8.50
2018-12-13T03:49:26.973Z,7.47
2018-12-13T03:51:58.082Z,7.77
2018-12-13T03:54:29.137Z,7.47
2018-12-13T03:57:02.892Z,7.97
2018-12-13T03:59:34.203Z,7.93
2018-12-13T04:02:05.198Z,8.03
2018-12-13T04:04:36.307Z,7.47
2018-12-13T04:07:09.718Z,7.07
2018-12-13T04:09:41.228Z,8.00
2018-12-13T04:12:14.643Z,7.27
2018-12-13T04:14:46.276Z,7.50
2018-12-13T04:17:17.223Z,7.17
2018-12-13T04:19:48.171Z,6.57
2018-12-13T04:22:19.237Z,7.70
2018-12-13T04:24:50.877Z,8.20
2018-12-13T04:27:21.908Z,8.30
2018-12-13T04:29:52.855Z,7.93
2018-12-13T04:32:24.183Z,7.40
2018-12-13T04:34:57.460Z,7.57
2018-12-13T04:37:35.156Z,7.80
2018-12-13T04:40:01.919Z,7.63
2018-12-13T04:42:35.597Z,6.53
2018-12-13T04:45:09.483Z,7.50
2018-12-13T04:47:44.917Z,7.43
2018-12-13T04:50:18.551Z,7.57
2018-12-13T04:52:50.039Z,7.20
2018-12-13T04:55:23.415Z,6.97
2018-12-13T04:57:52.639Z,7.93
2018-12-13T05:00:23.839Z,7.10
2018-12-13T05:02:54.903Z,8.40
2018-12-13T05:05:28.472Z,7.70
2018-12-13T05:07:59.932Z,8.03
2018-12-13T05:10:49.998Z,8.37
2018-12-13T05:13:21.795Z,7.57
2018-12-13T05:15:53.287Z,8.97
2018-12-13T05:18:26.727Z,8.07
2018-12-13T05:20:58.033Z,8.07
2018-12-13T05:23:31.619Z,9.13
2018-12-13T05:26:03.272Z,8.33
2018-12-13T05:28:34.291Z,8.07
2018-12-13T05:31:05.407Z,8.63
2018-12-13T05:33:36.435Z,8.20
2018-12-13T05:36:07.529Z,7.00
2018-12-13T05:38:38.599Z,8.27
2018-12-13T05:41:09.687Z,9.97
2018-12-13T05:43:45.438Z,8.70
2018-12-13T05:46:18.884Z,9.53
2018-12-13T05:48:51.152Z,7.93
2018-12-13T05:51:25.095Z,7.87
2018-12-13T05:53:54.373Z,8.27
2018-12-13T05:56:25.463Z,8.20
2018-12-13T05:58:56.402Z,8.20
2018-12-13T06:01:30.053Z,7.20
2018-12-13T06:04:01.549Z,8.00
2018-12-13T06:06:32.332Z,7.70
2018-12-13T06:09:06.006Z,7.90
2018-12-13T06:11:37.398Z,7.70
2018-12-13T06:14:08.381Z,7.50
2018-12-13T06:16:39.391Z,8.60
2018-12-13T06:19:10.577Z,7.97
2018-12-13T06:21:42.319Z,7.70
2018-12-13T06:24:13.351Z,6.70
2018-12-13T06:26:44.162Z,7.03
2018-12-13T06:29:15.051Z,7.10
2018-12-13T06:31:46.284Z,7.77
2018-12-13T06:34:17.087Z,7.10
2018-12-13T06:36:50.483Z,7.70
2018-12-13T06:39:22.010Z,7.07
2018-12-13T06:41:52.873Z,7.80
2018-12-13T06:44:23.801Z,7.00
2018-12-13T06:46:57.347Z,7.43
2018-12-13T06:49:28.751Z,8.30
2018-12-13T06:52:00.471Z,8.83
2018-12-13T06:54:31.517Z,6.83
2018-12-13T06:57:02.530Z,7.70
2018-12-13T06:59:35.947Z,7.63
2018-12-13T07:02:07.358Z,8.47
2018-12-13T07:04:41.516Z,7.73
2018-12-13T07:07:14.987Z,8.43
2018-12-13T07:09:46.429Z,7.80
2018-12-13T07:12:20.971Z,9.27
2018-12-13T07:14:55.147Z,8.80
2018-12-13T07:17:26.708Z,9.00
2018-12-13T07:20:00.350Z,8.60
2018-12-13T07:22:34.672Z,9.90
2018-12-13T07:25:07.065Z,9.63
2018-12-13T07:27:38.759Z,9.93
2018-12-13T07:30:12.192Z,10.27
2018-12-13T07:32:43.484Z,9.17
2018-12-13T07:35:16.899Z,7.93
2018-12-13T07:37:48.407Z,8.43
2018-12-13T07:40:21.872Z,8.93
2018-12-13T07:42:54.015Z,8.23
2018-12-13T07:45:25.461Z,8.70
2018-12-13T07:47:56.479Z,7.60
2018-12-13T07:50:27.467Z,7.67
2018-12-13T07:52:58.615Z,8.00
2018-12-13T07:55:30.334Z,9.27
2018-12-13T07:58:03.784Z,8.47
2018-12-13T08:00:35.069Z,8.57
2018-12-13T08:03:06.220Z,7.80
2018-12-13T08:05:40.434Z,7.87
2018-12-13T08:08:11.754Z,7.43
2018-12-13T08:10:42.999Z,7.90
2018-12-13T08:13:13.947Z,9.23
2018-12-13T08:15:45.680Z,9.50
2018-12-13T08:18:19.260Z,8.70
2018-12-13T08:20:50.765Z,8.73
2018-12-13T08:23:21.751Z,8.83
2018-12-13T08:25:52.728Z,8.60
2018-12-13T08:28:23.674Z,9.50
2018-12-13T08:30:54.480Z,9.37
2018-12-13T08:33:25.723Z,9.43
2018-12-13T08:35:56.719Z,9.30
2018-12-13T08:38:27.720Z,9.53
2018-12-13T08:40:58.747Z,9.57
2018-12-13T08:43:29.887Z,9.73
2018-12-13T08:46:01.019Z,10.43
2018-12-13T08:48:31.798Z,9.90
2018-12-13T08:51:03.000Z,9.03
2018-12-13T08:53:33.712Z,9.70
2018-12-13T08:56:03.163Z,9.90
2018-12-13T08:58:34.124Z,10.07
2018-12-13T09:01:07.992Z,10.27
2018-12-13T09:03:39.255Z,9.00
2018-12-13T09:06:10.360Z,9.57
2018-12-13T09:08:41.357Z,9.40
2018-12-13T09:11:15.103Z,9.87
2018-12-13T09:13:46.583Z,9.20
2018-12-13T09:16:20.580Z,9.70
2018-12-13T09:18:51.770Z,9.63
2018-12-13T09:21:27.657Z,8.50
2018-12-13T09:23:59.099Z,9.00
2018-12-13T09:26:30.143Z,8.67
2018-12-13T09:29:00.847Z,9.50
2018-12-13T09:31:31.891Z,9.47
2018-12-13T09:34:02.995Z,9.30
2018-12-13T09:36:33.915Z,9.07
2018-12-13T09:39:06.698Z,9.83
2018-12-13T09:41:38.083Z,9.17
2018-12-13T09:44:14.355Z,9.00
2018-12-13T09:46:46.401Z,9.37
2018-12-13T09:49:18.127Z,8.07
2018-12-13T09:51:49.183Z,8.43
2018-12-13T09:54:20.872Z,8.80
2018-12-13T09:56:51.997Z,8.67
2018-12-13T09:59:22.840Z,8.93
2018-12-13T10:01:54.179Z,8.97
2018-12-13T10:04:28.004Z,7.90
2018-12-13T10:06:59.371Z,8.80
2018-12-13T10:09:30.315Z,8.50
2018-12-13T10:12:01.120Z,7.93
2018-12-13T10:14:32.111Z,7.20
2018-12-13T10:17:03.315Z,7.67
2018-12-13T10:19:36.823Z,7.87
2018-12-13T10:22:11.843Z,9.00
2018-12-13T10:24:43.436Z,7.17
2018-12-13T10:27:14.259Z,7.20
2018-12-13T10:29:45.186Z,8.10
2018-12-13T10:32:16.075Z,7.37
2018-12-13T10:34:47.291Z,6.97
2018-12-13T10:37:19.000Z,7.53
2018-12-13T10:39:50.170Z,8.00
2018-12-13T10:42:20.995Z,7.63
2018-12-13T10:44:52.031Z,7.17
2018-12-13T10:47:22.900Z,6.73
2018-12-13T10:52:25.588Z,6.37
2018-12-13T10:54:56.544Z,7.03
2018-12-13T10:57:27.503Z,7.10
2018-12-13T11:00:01.268Z,7.07
2018-12-13T11:05:43.215Z,7.60
2018-12-13T11:08:16.771Z,8.30
2018-12-13T11:10:48.130Z,7.30
2018-12-13T11:13:19.004Z,7.27
2018-12-13T11:15:49.707Z,7.47
2018-12-13T11:18:20.715Z,7.23
2018-12-13T11:20:51.440Z,6.53
2018-12-13T11:23:22.697Z,6.20
2018-12-13T11:25:56.158Z,7.87
2018-12-13T11:28:43.351Z,6.80
2018-12-13T11:31:14.905Z,6.33
2018-12-13T11:33:45.914Z,7.53
2018-12-13T11:36:17.247Z,6.70
2018-12-13T11:38:48.611Z,6.60
2018-12-13T11:41:19.737Z,6.60
2018-12-13T11:43:50.703Z,6.50
2018-12-13T11:46:21.736Z,6.53
2018-12-13T11:48:52.775Z,6.73
2018-12-13T11:51:23.607Z,7.23
2018-12-13T11:53:54.795Z,7.03
2018-12-13T11:56:25.802Z,7.37
2018-12-13T11:58:56.844Z,6.20
2018-12-13T12:01:27.991Z,7.13
2018-12-13T12:03:58.891Z,7.10
2018-12-13T12:06:32.726Z,6.30
2018-12-13T12:09:12.230Z,6.90
2018-12-13T12:11:40.325Z,6.23
2018-12-13T12:14:11.365Z,6.30
2018-12-13T12:16:42.707Z,6.87
2018-12-13T12:19:13.664Z,6.93
2018-12-13T12:21:45.388Z,7.40
2018-12-13T12:24:16.869Z,6.40
2018-12-13T12:26:51.512Z,6.50
2018-12-13T12:29:25.528Z,6.77
2018-12-13T12:31:59.297Z,6.80
2018-12-13T12:34:28.576Z,6.80
2018-12-13T12:36:59.591Z,6.47
2018-12-13T12:39:31.317Z,7.43
2018-12-13T12:42:02.157Z,6.77
2018-12-13T12:44:37.979Z,6.40
2018-12-13T12:47:09.948Z,6.70
2018-12-13T12:49:40.867Z,6.13
2018-12-13T12:52:14.963Z,6.90
2018-12-13T12:54:48.476Z,6.83
2018-12-13T12:57:18.015Z,6.90
2018-12-13T12:59:49.091Z,6.90
2018-12-13T13:02:20.026Z,7.07
2018-12-13T13:04:51.120Z,6.27
2018-12-13T13:09:55.848Z,6.57
2018-12-13T13:12:29.711Z,6.17
2018-12-13T13:15:00.939Z,6.30
2018-12-13T13:17:32.159Z,6.60
2018-12-13T13:20:05.998Z,6.67
2018-12-13T13:22:37.453Z,6.47
2018-12-13T13:25:08.623Z,6.30
2018-12-13T13:27:39.681Z,6.60
2018-12-13T13:30:10.507Z,5.80
2018-12-13T13:32:41.288Z,6.93
2018-12-13T13:35:12.302Z,6.23
2018-12-13T13:37:43.268Z,6.47
2018-12-13T13:40:14.383Z,6.43
2018-12-13T13:42:45.550Z,6.20
2018-12-13T13:45:16.822Z,6.57
2018-12-13T13:47:48.502Z,6.47
2018-12-13T13:50:19.559Z,6.67
2018-12-13T13:52:50.467Z,6.43
2018-12-13T13:55:24.029Z,6.00
2018-12-13T13:57:55.043Z,6.43
2018-12-13T14:00:26.296Z,6.40
2018-12-13T14:02:57.076Z,6.13
2018-12-13T14:05:28.282Z,6.23
2018-12-13T14:07:59.249Z,6.33
2018-12-13T14:18:03.439Z,5.40
2018-12-13T14:20:32.687Z,6.13
2018-12-13T14:23:04.215Z,5.93
2018-12-13T14:25:38.480Z,6.00
2018-12-13T14:28:07.783Z,5.90
2018-12-13T14:30:38.764Z,6.07
2018-12-13T14:33:10.000Z,6.10
2018-12-13T14:35:41.299Z,5.70
2018-12-13T14:38:14.976Z,6.30
2018-12-13T14:40:46.446Z,6.20
2018-12-13T14:43:17.323Z,6.17
2018-12-13T14:45:48.467Z,6.77
2018-12-13T14:48:19.381Z,6.40
2018-12-13T14:50:50.263Z,6.30
2018-12-13T14:53:21.411Z,5.97
2018-12-13T14:55:50.707Z,5.97
2018-12-13T14:58:21.753Z,6.07
2018-12-13T15:00:52.899Z,6.47
2018-12-13T15:03:23.630Z,5.63
2018-12-13T15:05:54.655Z,6.20
2018-12-13T15:08:25.783Z,6.00
2018-12-13T15:10:56.889Z,6.77
2018-12-13T15:13:28.133Z,6.77
2018-12-13T15:15:58.862Z,6.13
2018-12-13T15:18:32.610Z,5.90
2018-12-13T15:21:03.952Z,6.40
2018-12-13T15:23:37.500Z,6.97
2018-12-13T15:26:08.648Z,6.27
2018-12-13T15:28:42.424Z,6.50
2018-12-13T15:31:13.791Z,6.67
2018-12-13T15:33:47.166Z,6.10
2018-12-13T15:36:16.696Z,7.03
2018-12-13T15:38:47.428Z,7.23
2018-12-13T15:41:18.683Z,6.43
2018-12-13T15:43:49.742Z,6.63
2018-12-13T15:46:20.587Z,6.90
2018-12-13T15:48:54.294Z,6.60
2018-12-13T15:51:27.655Z,5.63
2018-12-13T15:53:59.237Z,6.97
2018-12-13T15:56:30.414Z,6.53
2018-12-13T15:59:01.245Z,5.93
2018-12-13T16:01:32.650Z,7.23
2018-12-13T16:04:03.863Z,5.90
2018-12-13T16:06:34.932Z,6.07
2018-12-13T16:09:07.194Z,6.47
2018-12-13T16:11:38.950Z,6.37
2018-12-13T16:14:09.774Z,6.47
2018-12-13T16:16:43.403Z,6.63
2018-12-13T16:26:49.883Z,6.63
2018-12-13T16:29:19.099Z,5.63
2018-12-13T16:31:49.962Z,5.10
2018-12-13T16:34:20.820Z,5.67
2018-12-13T16:36:51.735Z,5.40
2018-12-13T16:39:25.278Z,5.70
2018-12-13T16:41:54.928Z,5.70
2018-12-13T16:44:29.119Z,5.63
2018-12-13T16:47:01.236Z,6.00
2018-12-13T16:49:32.774Z,5.03
2018-12-13T16:52:06.547Z,5.97
2018-12-13T16:54:38.019Z,6.20
2018-12-13T16:57:08.876Z,6.00
2018-12-13T16:59:40.119Z,5.77
2018-12-13T17:02:11.187Z,5.27
2018-12-13T17:04:44.677Z,6.13
2018-12-13T17:07:16.084Z,6.20
2018-12-13T17:09:46.877Z,6.23
2018-12-13T17:12:18.127Z,6.17
2018-12-13T17:14:51.451Z,5.80
2018-12-13T17:17:23.102Z,5.80
2018-12-13T17:19:54.018Z,5.90
2018-12-13T17:22:25.286Z,6.07
2018-12-13T17:24:56.055Z,5.43
2018-12-13T17:27:27.285Z,5.87
2018-12-13T17:29:58.151Z,6.10
2018-12-13T17:32:28.943Z,6.23
2018-12-13T17:35:03.032Z,5.33
2018-12-13T17:37:34.284Z,6.10
2018-12-13T17:40:08.047Z,5.73
2018-12-13T17:42:39.416Z,6.40
2018-12-13T17:45:09.291Z,5.83
2018-12-13T17:47:40.307Z,5.90
2018-12-13T17:50:13.853Z,6.50
2018-12-13T17:52:45.075Z,5.70
2018-12-13T17:55:18.939Z,6.60
2018-12-13T17:57:52.795Z,6.23
2018-12-13T18:00:24.404Z,6.10
2018-12-13T18:02:58.029Z,6.27
2018-12-13T18:05:32.180Z,5.93
2018-12-13T18:08:05.631Z,6.17
2018-12-13T18:10:37.313Z,6.13
2018-12-13T18:13:08.364Z,6.43
2018-12-13T18:15:39.252Z,6.10
2018-12-13T18:18:10.427Z,6.47
2018-12-13T18:20:41.429Z,6.83
2018-12-13T18:23:12.667Z,6.53
2018-12-13T18:25:43.789Z,5.33
2018-12-13T18:33:15.411Z,6.80
2018-12-13T18:35:46.562Z,6.80
2018-12-13T18:38:17.826Z,7.33
2018-12-13T18:40:49.518Z,7.27
2018-12-13T18:43:23.383Z,7.00
2018-12-13T18:45:52.779Z,6.60
2018-12-13T18:48:26.275Z,6.60
2018-12-13T18:50:57.664Z,7.40
2018-12-13T18:53:28.734Z,6.50
2018-12-13T18:55:59.595Z,6.23
2018-12-13T18:58:30.692Z,7.10
2018-12-13T19:01:01.612Z,7.50
2018-12-13T19:03:32.395Z,6.43
2018-12-13T19:06:03.614Z,6.17
2018-12-13T19:08:35.178Z,6.80
2018-12-13T19:11:07.040Z,6.63
2018-12-13T19:13:38.076Z,6.20
2018-12-13T19:16:12.343Z,6.27
2018-12-13T19:18:44.180Z,6.63
2018-12-13T19:21:15.659Z,6.43
2018-12-13T19:23:46.673Z,6.20
2018-12-13T19:26:22.150Z,6.23
2018-12-13T19:28:53.528Z,6.30
2018-12-13T19:33:56.496Z,7.00
2018-12-13T19:36:27.837Z,6.67
2018-12-13T19:38:58.976Z,6.30
2018-12-13T19:41:29.882Z,6.43
2018-12-13T19:44:03.860Z,6.23
2018-12-13T19:46:34.881Z,7.27
2018-12-13T19:49:06.226Z,6.63
2018-12-13T19:51:37.235Z,6.27
2018-12-13T19:54:08.554Z,6.43
2018-12-13T19:56:40.023Z,7.00
2018-12-13T19:59:11.221Z,6.30
2018-12-13T20:01:42.073Z,6.90
2018-12-13T20:04:13.657Z,7.07
2018-12-13T20:06:45.206Z,6.47
2018-12-13T20:09:16.735Z,7.53
2018-12-13T20:11:50.079Z,8.80
2018-12-13T20:14:24.084Z,8.40
2018-12-13T20:16:55.579Z,7.27
2018-12-13T20:19:26.565Z,7.20
2018-12-13T20:21:57.810Z,8.60
2018-12-13T20:24:30.562Z,7.53
2018-12-13T20:27:01.916Z,8.87
2018-12-13T20:29:35.641Z,9.93
2018-12-13T20:34:39.358Z,14.60
2018-12-13T20:37:11.848Z,10.87
2018-12-13T20:39:43.247Z,10.57
2018-12-13T20:42:14.389Z,8.30
2018-12-13T20:44:45.222Z,8.07
2018-12-13T20:47:18.897Z,8.30
2018-12-13T20:49:50.399Z,6.70
2018-12-13T20:52:21.151Z,7.20
2018-12-13T20:54:52.099Z,6.73
2018-12-13T20:57:23.232Z,7.37
2018-12-13T20:59:54.621Z,6.40
2018-12-13T21:02:28.128Z,8.80
2018-12-13T21:04:59.339Z,8.13
2018-12-13T21:07:33.782Z,8.00
2018-12-13T21:10:08.732Z,8.27
2018-12-13T21:12:39.783Z,9.77
2018-12-13T21:15:10.734Z,7.90
2018-12-13T21:17:41.792Z,7.47
2018-12-13T21:20:15.399Z,7.00
2018-12-13T21:22:48.599Z,7.10
2018-12-13T21:25:22.664Z,7.33
2018-12-13T21:27:54.004Z,7.90
2018-12-13T21:30:24.940Z,7.57
2018-12-13T21:35:27.556Z,7.80
2018-12-13T21:37:58.713Z,7.93
2018-12-13T21:40:34.155Z,7.83
2018-12-13T21:43:05.563Z,7.20
2018-12-13T21:45:39.211Z,8.00
2018-12-13T21:48:10.615Z,8.67
2018-12-13T21:50:41.904Z,10.77
2018-12-13T21:53:12.789Z,8.53
2018-12-13T21:55:43.851Z,8.43
2018-12-13T21:58:14.664Z,7.90
2018-12-13T22:00:45.882Z,8.90
2018-12-13T22:03:16.883Z,8.23
2018-12-13T22:05:48.038Z,7.73
2018-12-13T22:08:19.115Z,7.30
2018-12-13T22:10:50.163Z,6.83
2018-12-13T22:13:21.293Z,7.93
2018-12-13T22:15:54.823Z,7.13
2018-12-13T22:18:26.610Z,6.97
2018-12-13T22:20:57.438Z,7.10
2018-12-13T22:23:28.251Z,7.70
2018-12-13T22:25:59.494Z,7.40
2018-12-13T22:28:30.456Z,6.80
2018-12-13T22:31:01.570Z,7.10
2018-12-13T22:36:02.227Z,7.47
2018-12-13T22:38:33.300Z,7.50
2018-12-13T22:41:04.691Z,7.07
2018-12-13T22:43:38.499Z,7.90
2018-12-13T22:46:10.431Z,7.33
2018-12-13T22:48:44.130Z,6.93
2018-12-13T22:51:15.579Z,7.53
2018-12-13T22:53:46.825Z,7.03
2018-12-13T22:56:17.783Z,6.83
2018-12-13T22:58:48.954Z,7.17
2018-12-13T23:01:20.135Z,7.60
2018-12-13T23:03:51.898Z,7.57
2018-12-13T23:06:23.124Z,8.03
2018-12-13T23:08:56.756Z,7.90
2018-12-13T23:11:32.669Z,7.30
2018-12-13T23:14:01.640Z,7.70
2018-12-13T23:16:32.679Z,7.43
2018-12-13T23:19:03.631Z,7.20
2018-12-13T23:21:34.491Z,7.03
2018-12-13T23:24:05.544Z,7.73
2018-12-13T23:26:34.767Z,7.00
2018-12-13T23:29:05.553Z,7.00
2018-12-13T23:31:36.699Z,8.03
2018-12-13T23:34:07.775Z,7.40
2018-12-13T23:36:38.811Z,7.73
2018-12-13T23:39:09.727Z,7.47
2018-12-13T23:41:40.876Z,8.03
2018-12-13T23:44:14.183Z,7.63
2018-12-13T23:46:47.733Z,7.13
2018-12-13T23:49:18.479Z,7.43
2018-12-13T23:51:49.527Z,6.93
2018-12-13T23:54:21.209Z,6.80
2018-12-13T23:56:52.846Z,7.20
2018-12-13T23:59:23.724Z,7.53
